createdAt,value
2023-02-19T09:22:35.163Z,16.73
2023-02-19T09:25:03.522Z,15.57
2023-02-19T09:27:32.348Z,17.92
2023-02-19T09:30:00.122Z,15.68
2023-02-19T09:32:30.973Z,17.73
2023-02-19T09:34:58.897Z,18.95
2023-02-19T09:37:34.084Z,17.27
2023-02-19T09:40:02.211Z,16.40
2023-02-19T09:42:33.002Z,15.35
2023-02-19T09:45:01.971Z,20.25
2023-02-19T09:47:32.918Z,17.95
2023-02-19T09:50:16.759Z,25.08
2023-02-19T09:52:54.144Z,26.75
2023-02-19T09:55:48.184Z,22.15
2023-02-19T09:58:57.194Z,21.85
2023-02-19T10:01:30.111Z,24.50
2023-02-19T10:03:58.531Z,20.37
2023-02-19T10:06:29.839Z,20.85
2023-02-19T10:09:21.221Z,18.20
2023-02-19T10:14:31.951Z,18.02
2023-02-19T10:17:03.289Z,18.62
2023-02-19T10:22:04.219Z,20.00
2023-02-19T10:24:32.108Z,24.65
2023-02-19T10:27:00.724Z,24.10
2023-02-19T10:29:28.673Z,25.92
2023-02-19T10:32:18.768Z,21.65
2023-02-19T10:34:47.540Z,21.50
2023-02-19T10:37:18.682Z,15.00
2023-02-19T10:39:50.475Z,20.65
2023-02-19T10:42:21.438Z,17.08
2023-02-19T10:47:29.275Z,18.40
2023-02-19T10:50:02.105Z,24.67
2023-02-19T10:52:35.332Z,18.30
2023-02-19T10:55:28.937Z,19.35
2023-02-19T10:57:57.881Z,22.77
2023-02-19T11:00:30.336Z,19.52
2023-02-19T11:03:23.947Z,16.48
2023-02-19T11:06:01.779Z,15.88
2023-02-19T11:08:30.567Z,20.30
2023-02-19T11:10:58.608Z,19.92
2023-02-19T11:13:32.830Z,17.23
2023-02-19T11:16:01.232Z,20.08
2023-02-19T11:18:33.014Z,23.20
2023-02-19T11:21:04.986Z,14.35
2023-02-19T11:23:37.676Z,11.50
2023-02-19T11:26:16.574Z,16.48
2023-02-19T11:28:44.689Z,12.18
2023-02-19T11:31:23.016Z,10.77
2023-02-19T11:34:17.438Z,6.20
2023-02-19T11:36:45.508Z,6.57
2023-02-19T11:39:15.988Z,6.35
2023-02-19T11:42:04.359Z,5.57
2023-02-19T11:55:19.074Z,5.30
2023-02-19T11:58:51.911Z,6.85
2023-02-19T12:02:17.437Z,3.87
2023-02-19T12:05:45.918Z,4.28
2023-02-19T12:08:50.883Z,4.37
2023-02-19T12:11:40.837Z,6.12
2023-02-19T12:14:29.109Z,4.20
2023-02-19T12:18:18.842Z,4.35
2023-02-19T12:21:22.494Z,4.10
2023-02-19T12:24:45.826Z,4.57
2023-02-19T12:28:10.938Z,8.60
2023-02-19T12:31:45.133Z,8.35
2023-02-19T12:35:12.429Z,6.50
2023-02-19T12:38:12.832Z,6.20
2023-02-19T12:41:00.322Z,5.07
2023-02-19T12:43:55.546Z,9.85
2023-02-19T12:46:35.474Z,8.02
2023-02-19T12:49:13.141Z,8.30
2023-02-19T12:51:55.912Z,10.02
2023-02-19T12:54:39.866Z,8.13
2023-02-19T12:57:39.258Z,5.45
2023-02-19T13:00:51.974Z,13.13
2023-02-19T13:03:32.391Z,6.12
2023-02-19T13:06:19.693Z,6.32
2023-02-19T13:09:07.377Z,5.37
2023-02-19T13:11:38.587Z,4.28
2023-02-19T13:14:14.874Z,5.03
2023-02-19T13:16:48.594Z,5.93
2023-02-19T13:19:16.308Z,5.60
2023-02-19T13:22:09.737Z,4.28
2023-02-19T13:24:42.712Z,11.15
2023-02-19T13:27:22.994Z,4.30
2023-02-19T13:30:12.205Z,4.15
2023-02-19T13:32:59.685Z,3.58
2023-02-19T13:35:49.545Z,3.55
2023-02-19T13:38:17.919Z,2.90
2023-02-19T13:40:57.121Z,4.60
2023-02-19T13:43:35.488Z,4.35
2023-02-19T13:46:17.192Z,2.40
2023-02-19T13:48:45.379Z,7.80
2023-02-19T13:51:13.301Z,3.72
2023-02-19T13:53:50.350Z,3.75
2023-02-19T13:56:44.724Z,3.05
2023-02-19T13:59:12.432Z,2.08
2023-02-19T14:01:53.051Z,2.92
2023-02-19T14:04:51.995Z,4.07
2023-02-19T14:07:33.147Z,2.05
2023-02-19T14:10:02.233Z,1.92
2023-02-19T14:12:37.606Z,3.37
2023-02-19T14:15:36.667Z,2.33
2023-02-19T14:18:43.103Z,5.20
2023-02-19T14:21:27.947Z,2.62
2023-02-19T14:23:58.022Z,4.12
2023-02-19T14:26:27.654Z,2.83
2023-02-19T14:28:56.070Z,3.17
2023-02-19T14:31:31.298Z,3.95
2023-02-19T14:34:03.511Z,5.22
2023-02-19T14:36:40.628Z,5.70
2023-02-19T14:39:11.186Z,2.42
2023-02-19T14:41:42.738Z,3.33
2023-02-19T14:44:18.595Z,3.42
2023-02-19T14:46:54.426Z,2.03
2023-02-19T14:49:31.672Z,2.10
2023-02-19T14:52:03.619Z,10.77
2023-02-19T14:55:04.061Z,4.15
2023-02-19T14:57:36.225Z,3.37
2023-02-19T15:00:20.244Z,5.22
2023-02-19T15:02:49.680Z,27.40
2023-02-19T15:05:22.288Z,6.25
2023-02-19T15:07:51.533Z,2.62
2023-02-19T15:10:20.362Z,2.97
2023-02-19T15:12:57.301Z,2.50
2023-02-19T15:15:29.664Z,2.60
2023-02-19T15:17:59.158Z,3.15
2023-02-19T15:20:31.054Z,3.65
2023-02-19T15:23:00.986Z,2.28
2023-02-19T15:25:37.886Z,2.45
2023-02-19T15:28:24.041Z,8.48
2023-02-19T15:30:58.395Z,2.35
2023-02-19T15:33:27.800Z,1.75
2023-02-19T15:36:02.115Z,2.50
2023-02-19T15:38:30.684Z,3.30
2023-02-19T15:40:59.487Z,1.70
2023-02-19T15:43:53.887Z,7.45
2023-02-19T15:46:24.914Z,3.83
2023-02-19T15:49:09.042Z,5.45
2023-02-19T15:52:01.499Z,1.35
2023-02-19T15:54:41.445Z,1.12
2023-02-19T15:57:19.829Z,1.02
2023-02-19T15:59:54.904Z,0.82
2023-02-19T16:02:23.511Z,2.80
2023-02-19T16:04:51.591Z,2.10
2023-02-19T16:07:34.275Z,2.47
2023-02-19T16:10:24.229Z,3.15
2023-02-19T16:13:00.265Z,3.33
2023-02-19T16:15:32.710Z,2.75
2023-02-19T16:18:00.694Z,2.15
2023-02-19T16:20:36.135Z,4.47
2023-02-19T16:23:13.231Z,1.50
2023-02-19T16:25:45.130Z,2.50
2023-02-19T16:28:24.793Z,1.12
2023-02-19T16:30:57.882Z,4.32
2023-02-19T16:33:41.192Z,2.53
2023-02-19T16:36:32.455Z,1.08
2023-02-19T16:39:14.802Z,2.65
2023-02-19T16:41:48.706Z,5.55
2023-02-19T16:44:30.905Z,4.05
2023-02-19T16:47:06.403Z,9.00
2023-02-19T16:49:37.308Z,3.20
2023-02-19T16:52:05.224Z,4.95
2023-02-19T16:54:33.593Z,1.77
2023-02-19T16:57:01.797Z,1.70
2023-02-19T16:59:29.806Z,1.37
2023-02-19T17:01:57.960Z,3.30
2023-02-19T17:04:27.610Z,2.10
2023-02-19T17:06:55.481Z,3.15
2023-02-19T17:09:24.436Z,10.90
2023-02-19T17:11:52.868Z,11.55
2023-02-19T17:14:20.725Z,1.50
2023-02-19T17:16:48.712Z,10.85
2023-02-19T17:19:19.041Z,1.33
2023-02-19T17:21:47.258Z,1.00
2023-02-19T17:24:18.406Z,1.10
2023-02-19T17:26:46.754Z,1.67
2023-02-19T17:29:18.044Z,0.80
2023-02-19T17:31:46.538Z,0.80
2023-02-19T17:34:14.483Z,1.33
2023-02-19T17:36:44.740Z,1.92
2023-02-19T17:39:18.025Z,1.00
2023-02-19T17:41:46.518Z,1.95
2023-02-19T17:44:14.394Z,2.30
2023-02-19T17:46:42.423Z,3.58
2023-02-19T17:49:12.677Z,5.68
2023-02-19T17:51:41.059Z,4.95
2023-02-19T17:54:09.511Z,2.00
2023-02-19T17:56:37.562Z,2.72
2023-02-19T17:59:05.891Z,4.97
2023-02-19T18:01:33.859Z,5.05
2023-02-19T18:04:02.188Z,8.65
2023-02-19T18:06:30.332Z,1.60
2023-02-19T18:08:59.675Z,3.70
2023-02-19T18:11:28.355Z,4.32
2023-02-19T18:13:56.408Z,6.22
2023-02-19T18:16:24.088Z,8.02
2023-02-19T18:18:53.376Z,7.15
2023-02-19T18:21:23.851Z,1.40
2023-02-19T18:23:51.841Z,2.20
2023-02-19T18:26:21.497Z,2.37
2023-02-19T18:28:49.992Z,3.37
2023-02-19T18:31:17.917Z,2.83
2023-02-19T18:33:46.180Z,2.00
2023-02-19T18:36:14.150Z,3.28
2023-02-19T18:38:42.531Z,2.10
2023-02-19T18:41:14.350Z,5.15
2023-02-19T18:43:42.713Z,1.20
2023-02-19T18:46:11.066Z,2.87
2023-02-19T18:48:39.294Z,2.87
2023-02-19T18:51:11.127Z,3.62
2023-02-19T18:53:45.164Z,3.37
2023-02-19T18:56:13.147Z,2.80
2023-02-19T18:58:44.250Z,4.90
2023-02-19T19:01:13.807Z,3.90
2023-02-19T19:03:41.946Z,4.05
2023-02-19T19:06:09.896Z,3.53
2023-02-19T19:08:37.589Z,3.33
2023-02-19T19:11:06.283Z,3.42
2023-02-19T19:13:35.323Z,53.53
2023-02-19T19:16:03.686Z,4.05
2023-02-19T19:18:38.161Z,3.67
2023-02-19T19:21:07.178Z,3.70
2023-02-19T19:23:36.680Z,4.57
2023-02-19T19:26:06.158Z,5.90
2023-02-19T19:28:34.109Z,4.72
2023-02-19T19:31:03.472Z,3.20
2023-02-19T19:33:32.192Z,3.53
2023-02-19T19:36:00.100Z,25.58
2023-02-19T19:38:28.094Z,14.63
2023-02-19T19:40:56.073Z,3.50
2023-02-19T19:43:27.714Z,8.20
2023-02-19T19:45:56.849Z,1.73
2023-02-19T19:48:27.600Z,1.80
2023-02-19T19:50:58.790Z,2.60
2023-02-19T19:53:26.840Z,0.90
2023-02-19T19:55:54.767Z,1.15
2023-02-19T19:58:24.849Z,5.93
2023-02-19T20:00:53.558Z,4.85
2023-02-19T20:03:22.046Z,4.72
2023-02-19T20:05:51.318Z,1.83
2023-02-19T20:08:19.606Z,3.78
2023-02-19T20:10:47.719Z,6.35
2023-02-19T20:13:19.493Z,5.95
2023-02-19T20:15:47.798Z,2.15
2023-02-19T20:18:15.588Z,7.28
2023-02-19T20:20:43.445Z,2.37
2023-02-19T20:23:12.715Z,2.47
2023-02-19T20:25:40.613Z,1.55
2023-02-19T20:28:08.287Z,2.22
2023-02-19T20:30:37.362Z,1.20
2023-02-19T20:33:05.320Z,1.35
2023-02-19T20:35:33.748Z,2.12
2023-02-19T20:38:02.347Z,2.40
2023-02-19T20:40:31.375Z,1.37
2023-02-19T20:43:01.005Z,3.35
2023-02-19T20:45:31.010Z,3.30
2023-02-19T20:47:58.664Z,1.23
2023-02-19T20:50:26.503Z,1.80
2023-02-19T20:52:55.759Z,3.90
2023-02-19T20:55:24.955Z,1.80
2023-02-19T20:57:52.882Z,2.42
2023-02-19T21:00:21.514Z,4.80
2023-02-19T21:02:49.915Z,3.17
2023-02-19T21:05:19.925Z,2.12
2023-02-19T21:07:48.218Z,2.58
2023-02-19T21:10:16.288Z,2.60
2023-02-19T21:12:44.067Z,4.22
2023-02-19T21:15:15.596Z,4.35
2023-02-19T21:17:46.578Z,2.20
2023-02-19T21:22:43.760Z,3.67
2023-02-19T21:25:12.041Z,3.22
2023-02-19T21:27:40.017Z,2.33
2023-02-19T21:30:08.627Z,4.85
2023-02-19T21:32:36.404Z,3.40
2023-02-19T21:35:05.935Z,2.90
2023-02-19T21:37:33.523Z,2.60
2023-02-19T21:40:01.416Z,3.35
2023-02-19T21:42:29.461Z,3.15
2023-02-19T21:44:57.245Z,5.45
2023-02-19T21:47:24.850Z,2.42
2023-02-19T21:49:52.728Z,2.75
2023-02-19T21:52:20.976Z,5.65
2023-02-19T21:54:48.625Z,4.78
2023-02-19T21:57:16.727Z,2.97
2023-02-19T21:59:44.923Z,3.42
2023-02-19T22:02:12.700Z,4.40
2023-02-19T22:04:40.763Z,3.62
2023-02-19T22:07:08.524Z,4.50
2023-02-19T22:09:36.634Z,5.10
2023-02-19T22:12:05.047Z,6.55
2023-02-19T22:14:32.724Z,3.35
2023-02-19T22:17:00.310Z,6.18
2023-02-19T22:19:28.248Z,4.68
2023-02-19T22:21:55.918Z,3.33
2023-02-19T22:24:23.500Z,3.80
2023-02-19T22:26:56.563Z,8.60
2023-02-19T22:29:24.476Z,7.10
2023-02-19T22:31:52.970Z,4.95
2023-02-19T22:34:20.716Z,6.90
2023-02-19T22:36:48.585Z,5.82
2023-02-19T22:39:25.605Z,3.53
2023-02-19T22:41:54.004Z,5.10
2023-02-19T22:44:22.168Z,8.55
2023-02-19T22:46:54.915Z,5.30
2023-02-19T22:49:24.123Z,5.97
2023-02-19T22:52:04.437Z,4.85
2023-02-19T22:54:32.286Z,5.90
2023-02-19T22:56:59.949Z,3.90
2023-02-19T22:59:27.879Z,3.90
2023-02-19T23:01:56.498Z,6.50
2023-02-19T23:04:25.425Z,2.60
2023-02-19T23:06:56.061Z,5.50
2023-02-19T23:09:27.394Z,3.22
2023-02-19T23:12:07.008Z,3.40
2023-02-19T23:14:35.471Z,4.90
2023-02-19T23:17:03.570Z,4.87
2023-02-19T23:19:32.151Z,3.12
2023-02-19T23:22:00.335Z,4.78
2023-02-19T23:24:27.896Z,3.37
2023-02-19T23:26:55.587Z,4.22
2023-02-19T23:29:25.890Z,4.22
2023-02-19T23:31:54.716Z,3.12
2023-02-19T23:34:22.785Z,3.72
2023-02-19T23:36:51.564Z,7.75
2023-02-19T23:39:21.406Z,5.12
2023-02-19T23:41:51.373Z,3.75
2023-02-19T23:44:20.563Z,5.78
2023-02-19T23:46:50.189Z,5.40
2023-02-19T23:49:19.159Z,3.30
2023-02-19T23:51:47.202Z,5.00
2023-02-19T23:54:14.998Z,3.83
2023-02-19T23:56:42.598Z,4.90
2023-02-19T23:59:10.618Z,7.35
